Flight Track Log - Related Links

Times and Time Zones

All times are in EDT time to prevent confusion due to time zone crossing. See the N20AZ flight status page for this flight to view local times or setup timezone preferences in your user account.

Time Position Orientation Groundspeed Altitude Reporting Facility
EDT Latitude Longitude Course Direction KTS MPH feet Rate Location/Type
Tue 11:59:33 AM 35.8667 -86.6500 149° Southeast 149 171 2,100  Level Nashville TRACON
Tue 12:00:33 PM 35.8333 -86.6167 141° Southeast 137 158 2,500 287 Climbing Nashville TRACON
Tue 12:02:20 PM 35.7897 -86.5644 136° Southeast 154 177 2,900 251 Climbing Memphis Center
Tue 12:03:20 PM 35.7639 -86.5297 133° Southeast 154 177 3,200 400 Climbing Memphis Center
Tue 12:04:20 PM 35.7356 -86.4978 138° Southeast 139 160 3,700 500 Climbing Memphis Center
Tue 12:05:20 PM 35.7136 -86.4631 128° Southeast 139 160 4,200 500 Climbing Memphis Center
Tue 12:06:20 PM 35.6833 -86.4286 137° Southeast 133 153 4,700 400 Climbing Memphis Center
Tue 12:07:20 PM 35.6575 -86.3967 135° Southeast 133 153 5,000 100 Climbing Memphis Center
Tue 12:08:20 PM 35.6292 -86.3572 131° Southeast 143 165 4,900 -50 Descending Memphis Center
Tue 12:09:20 PM 35.6006 -86.3178 132° Southeast 150 173 4,900 50 Level Memphis Center
Tue 12:10:20 PM 35.5703 -86.2808 135° Southeast 156 180 5,000  Climbing Memphis Center
Tue 12:11:20 PM 35.5419 -86.2442 134° Southeast 151 174 4,900  Descending Memphis Center
Tue 12:12:20 PM 35.5114 -86.2047 134° Southeast 151 174 5,000  Climbing Memphis Center
Tue 12:13:20 PM 35.4850 -86.1678 131° Southeast 157 181 4,900 -50 Descending Memphis Center
Tue 12:14:20 PM 35.4567 -86.1283 131° Southeast 157 181 4,900 50 Level Memphis Center
Tue 12:15:20 PM 35.4261 -86.0892 134° Southeast 157 181 5,000 50 Climbing Memphis Center
Tue 12:16:20 PM 35.3978 -86.0550 135° Southeast 157 181 5,000  Level Memphis Center
Tue 12:17:20 PM 35.3675 -86.0186 136° Southeast 157 181 5,000  Level Memphis Center
Tue 12:18:20 PM 35.3389 -85.9792 132° Southeast 157 181 5,000  Level Memphis Center
Tue 12:19:20 PM 35.3106 -85.9425 133° Southeast 157 181 5,000  Level Memphis Center
Tue 12:20:20 PM 35.2819 -85.9058 134° Southeast 152 175 5,000  Level Memphis Center
Tue 12:21:20 PM 35.2536 -85.8692 133° Southeast 152 175 5,000  Level Memphis Center
Tue 12:22:20 PM 35.2208 -85.8303 136° Southeast 152 175 5,000  Level Memphis Center
Tue 12:23:20 PM 35.1944 -85.7911 129° Southeast 152 175 5,000  Level Memphis Center
Tue 12:24:20 PM 35.1639 -85.7522 134° Southeast 152 175 5,000  Level Memphis Center
Tue 12:26:00 PM 35.1195 -85.6928 132° Southeast  Level FlightAware Approximate
Tue 12:33:00 PM 34.9288 -85.4485 134° Southeast  Level FlightAware Approximate
Tue 12:34:00 PM 34.9015 -85.4138 134° Southeast  Level FlightAware Approximate
Tue 12:35:00 PM 34.8741 -85.3791 134° Southeast  Level FlightAware Approximate
Tue 12:36:00 PM 34.8467 -85.3445 134° Southeast  Level FlightAware Approximate
Tue 12:37:00 PM 34.8193 -85.3098 134° Southeast  Level FlightAware Approximate
Tue 12:38:00 PM 34.7920 -85.2752 134° Southeast  Level FlightAware Approximate
Tue 12:39:00 PM 34.7645 -85.2406 134° Southeast  Level FlightAware Approximate
Tue 12:40:00 PM 34.7371 -85.2060 134° Southeast  Level FlightAware Approximate
Tue 12:41:00 PM 34.7097 -85.1714 134° Southeast  Level FlightAware Approximate
Tue 12:41:57 PM 34.6661 -85.1222 134° Southeast 146 168 5,000  Level Atlanta Center
Tue 12:42:00 PM 34.6823 -85.1369 134° Southeast  Level FlightAware Approximate
Tue 12:42:58 PM 34.6350 -85.0889 139° Southeast 146 168 5,000  Level Atlanta Center
Tue 12:43:00 PM 34.6549 -85.1024 134° Southeast  Level FlightAware Approximate
Tue 12:43:57 PM 34.6083 -85.0533 132° Southeast 139 160 5,000  Level Atlanta Center
Tue 12:44:00 PM 34.6274 -85.0679 134° Southeast  Level FlightAware Approximate
Tue 12:44:57 PM 34.5878 -85.0128 122° Southeast 139 160 5,000  Level Atlanta Center
Tue 12:45:00 PM 34.5999 -85.0334 134° Southeast  Level FlightAware Approximate
Tue 12:45:58 PM 34.5714 -84.9697 115° Southeast 139 160 5,000  Level Atlanta Center
Tue 12:46:00 PM 34.5725 -84.9990 134° Southeast  Level FlightAware Approximate
Tue 12:46:58 PM 34.5592 -84.9242 108° East 139 160 5,000  Level Atlanta Center
Tue 12:47:57 PM 34.5469 -84.8811 109° East 131 151 5,000  Level Atlanta Center
Tue 12:48:57 PM 34.5369 -84.8306 103° East 136 157 5,000  Level Atlanta Center
Tue 12:49:58 PM 34.5244 -84.7850 108° East 141 162 5,000  Level Atlanta Center
Tue 12:50:58 PM 34.5144 -84.7397 105° East 141 162 5,000  Level Atlanta Center
Tue 12:51:57 PM 34.5042 -84.6967 106° East 141 162 5,000  Level Atlanta Center
Tue 12:52:57 PM 34.4897 -84.6536 112° Southeast 141 162 5,000  Level Atlanta Center
Tue 12:53:58 PM 34.4797 -84.6058 104° East 136 157 5,000  Level Atlanta Center
Tue 12:54:57 PM 34.4631 -84.5628 115° Southeast 136 157 5,000  Level Atlanta Center
Tue 12:55:57 PM 34.4467 -84.5225 116° Southeast 136 157 5,000  Level Atlanta Center
Tue 12:56:57 PM 34.4281 -84.4794 118° Southeast 136 157 5,000  Level Atlanta Center
Tue 12:57:58 PM 34.4114 -84.4417 118° Southeast 136 157 5,000 -100 Level Atlanta Center
Tue 12:58:57 PM 34.3739 -84.4189 153° Southeast 136 157 4,800 -50 Descending Atlanta Center
Tue 12:59:57 PM 34.3386 -84.3936 149° Southeast 143 165 4,900 50 Climbing Atlanta Center
Tue 01:00:58 PM 34.3053 -84.3656 145° Southeast 143 165 4,900  Level Atlanta Center
Tue 01:01:57 PM 34.2719 -84.3381 146° Southeast 143 165 4,900  Level Atlanta Center
Tue 01:02:57 PM 34.2322 -84.3103 150° Southeast 143 165 4,900  Level Atlanta Center
Tue 01:03:58 PM 34.1969 -84.2800 145° Southeast 143 165 4,900  Level Atlanta Center
Tue 01:04:58 PM 34.1636 -84.2547 148° Southeast 143 165 4,900  Level Atlanta Center
Tue 01:05:58 PM 34.1281 -84.2269 147° Southeast 148 170 4,900  Level Atlanta Center
Tue 01:06:45 PM 34.1000 -84.2000 142° Southeast 146 168 4,900  Level Atlanta TRACON
Tue 01:07:45 PM 34.0667 -84.1833 158° South 146 168 4,900  Level Atlanta TRACON
Tue 01:08:45 PM 34.0333 -84.1500 140° Southeast 147 169 4,900  Level Atlanta TRACON
Tue 01:09:45 PM 34.0000 -84.1333 157° South 150 173 4,900 -263 Level Atlanta TRACON
Tue 01:10:39 PM 33.9667 -84.1000 140° Southeast 148 170 4,400 -526 Descending Atlanta TRACON
Tue 01:11:39 PM 33.9333 -84.0667 140° Southeast 155 178 3,900 -250 Descending Atlanta TRACON
Tue 01:12:39 PM 33.9000 -84.0333 140° Southeast 138 159 3,900  Level Atlanta TRACON
Tue 01:13:39 PM 33.8833 -84.0000 121° Southeast 143 165 3,900 -50 Level Atlanta TRACON
Tue 01:14:39 PM 33.8500 -83.9667 140° Southeast 145 167 3,800 -150 Descending Atlanta TRACON
Tue 01:15:39 PM 33.8167 -83.9333 140° Southeast 146 168 3,600 -250 Descending Atlanta TRACON
Tue 01:16:39 PM 33.7833 -83.9000 140° Southeast 157 181 3,300 -368 Descending Atlanta TRACON
Tue 01:17:33 PM 33.7500 -83.9000 180° South 155 178 2,900 -316 Descending Atlanta TRACON
Tue 01:18:33 PM 33.7167 -83.9167 203° Southwest 141 162 2,700 -95 Descending Atlanta TRACON
Tue 01:19:39 PM 33.6833 -83.9333 203° Southwest 130 150 2,700  Level Atlanta TRACON

Login

Don't have an account? Register now (free) for customized features, flight alerts, and more!